Time;durP1;ratioP1;P1;durP2;ratioP2;P2;SDS_P1;SDS_P2;PMS_P1;PMS_P2;Temp;Humidity;BMP_temperature;BMP_pressure;BME280_temperature;BME280_humidity;BME280_pressure;Samples;Min_cycle;Max_cycle;Signal;HPM_P1;HPM_P2
2022/12/23 00:01:08;;;;;;;11.67;5.43;;;;;;;2.14;100.00;100539.81;1825602;77;20979;-71
2022/12/23 00:03:38;;;;;;;11.53;5.67;;;;;;;2.14;100.00;100544.30;1860399;77;21337;-72
2022/12/23 00:06:16;;;;;;;12.67;5.57;;;;;;;2.17;100.00;100537.44;1860406;77;20997;-70
2022/12/23 00:08:45;;;;;;;12.40;5.20;;;;;;;2.18;100.00;100537.33;1860407;77;21026;-72
2022/12/23 00:11:17;;;;;;;12.27;5.83;;;;;;;2.19;100.00;100528.84;1860376;77;20955;-71
2022/12/23 00:16:31;;;;;;;11.23;5.07;;;;;;;2.24;100.00;100534.72;1860427;77;21009;-71
2022/12/23 00:18:59;;;;;;;12.13;5.47;;;;;;;2.25;100.00;100523.94;1825584;77;21030;-71
2022/12/23 00:21:29;;;;;;;11.33;5.00;;;;;;;2.27;100.00;100518.02;1858515;77;21497;-72
2022/12/23 00:24:00;;;;;;;9.70;4.93;;;;;;;2.31;100.00;100516.47;1848698;78;21019;-72
2022/12/23 00:26:27;;;;;;;10.93;4.90;;;;;;;2.34;100.00;100514.91;1848864;78;20995;-71
2022/12/23 00:28:57;;;;;;;10.27;5.10;;;;;;;2.37;100.00;100512.03;1848845;78;21046;-72
2022/12/23 00:31:25;;;;;;;10.27;5.53;;;;;;;2.38;100.00;100510.59;1848785;78;21038;-72
2022/12/23 00:33:53;;;;;;;9.23;5.00;;;;;;;2.39;100.00;100501.64;1849089;78;20963;-71
2022/12/23 00:36:26;;;;;;;10.07;4.87;;;;;;;2.40;100.00;100497.98;1849084;78;21018;-72
2022/12/23 00:44:25;;;;;;;13.13;5.43;;;;;;;2.44;100.00;100486.16;1848647;78;21019;-72
2022/12/23 00:46:52;;;;;;;11.33;5.17;;;;;;;2.42;100.00;100487.21;1849084;78;20998;-72
2022/12/23 00:52:09;;;;;;;14.40;6.20;;;;;;;2.42;100.00;100480.05;1849335;78;21034;-72
2022/12/23 00:54:36;;;;;;;11.93;5.97;;;;;;;2.41;100.00;100480.19;1849082;78;21011;-72
2022/12/23 00:57:03;;;;;;;16.50;6.03;;;;;;;2.41;100.00;100484.19;1848752;78;21062;-71
2022/12/23 00:59:31;;;;;;;15.93;7.17;;;;;;;2.39;100.00;100478.08;1849068;78;20990;-73
2022/12/23 01:07:30;;;;;;;12.30;5.63;;;;;;;2.43;100.00;100474.25;1848670;78;21011;-72
2022/12/23 01:09:58;;;;;;;17.07;7.00;;;;;;;2.46;100.00;100474.89;1849192;78;21058;-71
2022/12/23 01:12:27;;;;;;;14.03;6.27;;;;;;;2.47;100.00;100473.91;1848685;78;21067;-72
2022/12/23 01:14:55;;;;;;;12.70;5.80;;;;;;;2.51;100.00;100471.88;1848974;78;21496;-73
2022/12/23 01:17:21;;;;;;;13.83;6.07;;;;;;;2.54;100.00;100468.99;1848813;77;20943;-72
2022/12/23 01:19:49;;;;;;;14.40;6.60;;;;;;;2.56;100.00;100468.40;1848758;78;20979;-72
2022/12/23 01:22:16;;;;;;;15.23;6.03;;;;;;;2.58;100.00;100474.48;1848724;78;21477;-71
2022/12/23 01:24:42;;;;;;;16.43;6.03;;;;;;;2.59;100.00;100467.34;1848762;78;20995;-72
2022/12/23 01:27:09;;;;;;;11.40;5.67;;;;;;;2.60;100.00;100467.70;1848837;78;20979;-71
2022/12/23 01:29:36;;;;;;;11.47;5.47;;;;;;;2.60;100.00;100463.23;1849175;77;21026;-72
2022/12/23 01:32:03;;;;;;;15.00;5.40;;;;;;;2.59;100.00;100452.66;1848589;78;20978;-73
2022/12/23 01:34:30;;;;;;;10.63;5.53;;;;;;;2.59;100.00;100457.51;1848838;77;21020;-70
2022/12/23 01:36:57;;;;;;;13.00;5.80;;;;;;;2.62;100.00;100455.97;1848699;77;21457;-72
2022/12/23 01:39:24;;;;;;;16.70;6.63;;;;;;;2.63;100.00;100454.98;1849251;78;21010;-73
2022/12/23 01:45:01;;;;;;;10.37;5.27;;;;;;;2.64;100.00;100450.52;1849081;78;21503;-70
2022/12/23 01:47:35;;;;;;;12.37;5.97;;;;;;;2.63;100.00;100458.98;1848918;78;21014;-71
2022/12/23 01:50:17;;;;;;;14.77;7.40;;;;;;;2.65;100.00;100452.20;1848887;78;21015;-71
2022/12/23 01:52:57;;;;;;;19.50;8.63;;;;;;;2.63;100.00;100440.79;1848871;78;20967;-71
2022/12/23 01:55:26;;;;;;;14.63;6.47;;;;;;;2.64;100.00;100444.69;1848039;78;20999;-72
2022/12/23 01:57:55;;;;;;;13.13;5.90;;;;;;;2.65;100.00;100437.52;1843792;77;21026;-71
2022/12/23 02:05:52;;;;;;;11.27;5.67;;;;;;;2.66;100.00;100444.09;1849034;78;20963;-72
2022/12/23 02:11:25;;;;;;;14.17;5.70;;;;;;;2.66;100.00;100433.90;1849149;78;21421;-72
2022/12/23 02:17:18;;;;;;;14.77;6.13;;;;;;;2.64;100.00;100431.83;1848987;78;20967;-71
2022/12/23 02:20:39;;;;;;;12.03;5.83;;;;;;;2.65;100.00;100424.17;1833419;77;21045;-72
2022/12/23 02:23:38;;;;;;;11.70;5.30;;;;;;;2.64;100.00;100430.00;1849066;77;21025;-73
2022/12/23 02:26:50;;;;;;;12.53;6.33;;;;;;;2.58;100.00;100417.56;1849111;78;21018;-70
2022/12/23 02:29:25;;;;;;;15.93;6.30;;;;;;;2.57;100.00;100417.22;1848954;77;20951;-73
2022/12/23 02:32:28;;;;;;;14.30;6.10;;;;;;;2.53;100.00;100421.05;1849101;78;20975;-72
2022/12/23 02:35:16;;;;;;;13.53;6.50;;;;;;;2.51;100.00;100422.98;1849059;77;21042;-72
2022/12/23 02:38:06;;;;;;;15.30;6.43;;;;;;;2.50;100.00;100414.13;1848888;77;21532;-72
2022/12/23 02:40:47;;;;;;;17.17;7.23;;;;;;;2.47;100.00;100419.19;1849146;78;20990;-72
2022/12/23 02:43:34;;;;;;;16.57;7.23;;;;;;;2.46;100.00;100418.83;1849257;77;21058;-71
2022/12/23 02:46:19;;;;;;;15.30;6.90;;;;;;;2.45;100.00;100410.93;1849152;78;20973;-71
2022/12/23 02:49:03;;;;;;;16.87;6.43;;;;;;;2.45;100.00;100409.59;1848933;78;21463;-71
2022/12/23 02:51:35;;;;;;;16.27;7.17;;;;;;;2.44;100.00;100403.41;1849307;78;21050;-72
2022/12/23 02:54:04;;;;;;;15.50;6.90;;;;;;;2.46;100.00;100408.61;1849162;78;20979;-70
2022/12/23 02:56:32;;;;;;;17.60;7.20;;;;;;;2.49;100.00;100412.90;1849241;78;20983;-71
2022/12/23 02:59:14;;;;;;;17.73;7.87;;;;;;;2.50;100.00;100403.91;1849467;78;20999;-72
2022/12/23 03:01:41;;;;;;;17.80;8.00;;;;;;;2.50;100.00;100410.58;1849228;78;21492;-72
2022/12/23 03:04:08;;;;;;;19.13;8.70;;;;;;;2.51;100.00;100414.48;1849256;77;20994;-69
2022/12/23 03:06:43;;;;;;;18.63;8.87;;;;;;;2.52;100.00;100408.68;1849296;78;20978;-72
2022/12/23 03:09:34;;;;;;;20.33;9.30;;;;;;;2.52;100.00;100415.35;1849070;78;21019;-72
2022/12/23 03:12:31;;;;;;;18.97;8.50;;;;;;;2.53;100.00;100412.55;1849422;78;20955;-72
2022/12/23 03:15:26;;;;;;;19.23;8.90;;;;;;;2.52;100.00;100412.69;1848921;78;20979;-73
2022/12/23 03:18:21;;;;;;;17.23;7.50;;;;;;;2.54;100.00;100413.42;1849319;78;21534;-72
2022/12/23 03:21:12;;;;;;;19.20;9.17;;;;;;;2.55;100.00;100411.98;1849368;78;21042;-72
2022/12/23 03:23:47;;;;;;;18.80;8.33;;;;;;;2.56;100.00;100407.48;1845548;77;21058;-73
2022/12/23 03:26:18;;;;;;;17.07;8.00;;;;;;;2.56;100.00;100413.67;1860543;77;21003;-73
2022/12/23 03:29:16;;;;;;;17.10;7.97;;;;;;;2.57;100.00;100415.88;1860597;77;21050;-72
2022/12/23 03:31:43;;;;;;;21.00;9.27;;;;;;;2.59;100.00;100416.13;1860704;77;21029;-73
2022/12/23 03:34:14;;;;;;;18.33;8.20;;;;;;;2.61;100.00;100408.86;1860630;77;21002;-72
2022/12/23 03:36:48;;;;;;;16.00;7.17;;;;;;;2.62;100.00;100420.37;1860608;77;21029;-73
2022/12/23 03:39:19;;;;;;;16.93;8.10;;;;;;;2.62;100.00;100422.59;1859426;77;20954;-71
2022/12/23 03:41:50;;;;;;;16.07;7.57;;;;;;;2.63;100.00;100416.27;1860506;77;21049;-71
2022/12/23 03:44:28;;;;;;;15.47;7.13;;;;;;;2.63;100.00;100421.61;1859583;77;21002;-72
2022/12/23 03:47:03;;;;;;;16.13;6.97;;;;;;;2.64;100.00;100420.66;1859739;77;20974;-73
2022/12/23 03:49:38;;;;;;;13.63;6.67;;;;;;;2.67;100.00;100418.23;1860521;77;21021;-72
2022/12/23 03:52:16;;;;;;;13.73;6.07;;;;;;;2.70;100.00;100420.69;1860623;77;21479;-72
2022/12/23 03:54:51;;;;;;;15.10;7.17;;;;;;;2.73;100.00;100412.46;1860687;77;20970;-70
2022/12/23 03:57:19;;;;;;;16.50;6.53;;;;;;;2.76;100.00;100417.59;1860601;77;21002;-72
2022/12/23 03:59:49;;;;;;;12.97;6.30;;;;;;;2.79;100.00;100414.67;1825821;77;20967;-70
2022/12/23 04:02:30;;;;;;;12.60;6.53;;;;;;;2.83;100.00;100420.18;1860460;77;21054;-71
2022/12/23 04:05:20;;;;;;;15.37;6.73;;;;;;;2.85;100.00;100416.03;1860483;77;21041;-72
2022/12/23 04:08:10;;;;;;;16.17;6.73;;;;;;;2.87;100.00;100414.59;1860807;77;21010;-71
2022/12/23 04:10:38;;;;;;;18.83;7.87;;;;;;;2.88;100.00;100415.81;1860165;77;21514;-72
2022/12/23 04:13:04;;;;;;;16.80;7.40;;;;;;;2.90;100.00;100415.22;1825022;77;21053;-72
2022/12/23 04:15:32;;;;;;;16.40;8.03;;;;;;;2.91;100.00;100419.61;1860101;77;21488;-72
2022/12/23 04:17:59;;;;;;;17.23;7.50;;;;;;;2.95;100.00;100418.91;1860366;77;20990;-73
2022/12/23 04:20:29;;;;;;;14.07;6.70;;;;;;;2.96;100.00;100411.27;1860377;77;20982;-71
2022/12/23 04:22:56;;;;;;;13.90;6.70;;;;;;;2.96;100.00;100408.11;1856179;77;21049;-73
2022/12/23 04:25:22;;;;;;;17.23;8.30;;;;;;;2.97;100.00;100410.28;1848776;78;20962;-72
2022/12/23 04:27:51;;;;;;;18.83;9.07;;;;;;;2.96;100.00;100402.77;1849168;78;21034;-72
2022/12/23 04:30:18;;;;;;;18.27;8.50;;;;;;;2.98;100.00;100391.97;1849223;78;20967;-72
2022/12/23 04:32:45;;;;;;;19.43;9.30;;;;;;;3.01;100.00;100399.27;1849051;78;21050;-72
2022/12/23 04:35:11;;;;;;;20.13;10.13;;;;;;;3.03;100.00;100403.17;1849213;77;20943;-73
2022/12/23 04:37:38;;;;;;;18.67;8.70;;;;;;;3.06;100.00;100406.92;1848841;78;20976;-71
2022/12/23 04:40:07;;;;;;;18.80;8.97;;;;;;;3.08;100.00;100405.02;1849045;78;20983;-72
2022/12/23 04:42:36;;;;;;;20.63;9.17;;;;;;;3.11;100.00;100409.27;1848879;78;21043;-72
2022/12/23 04:45:05;;;;;;;19.30;9.57;;;;;;;3.13;100.00;100405.99;1849270;78;21007;-70
2022/12/23 04:47:34;;;;;;;19.67;9.73;;;;;;;3.15;100.00;100402.72;1849382;78;21484;-72
2022/12/23 04:50:01;;;;;;;19.97;10.30;;;;;;;3.16;100.00;100400.43;1849511;78;21496;-71
2022/12/23 04:52:28;;;;;;;21.23;10.37;;;;;;;3.18;100.00;100396.66;1849255;78;21016;-70
2022/12/23 04:54:55;;;;;;;22.57;9.87;;;;;;;3.19;100.00;100392.19;1849696;78;20991;-72
2022/12/23 04:57:22;;;;;;;20.27;10.30;;;;;;;3.19;100.00;100398.88;1849163;77;21018;-73
2022/12/23 04:59:49;;;;;;;21.53;10.47;;;;;;;3.19;100.00;100394.86;1849443;78;21484;-72
2022/12/23 05:02:18;;;;;;;20.13;10.03;;;;;;;3.20;100.00;100401.40;1849311;78;21042;-72
2022/12/23 05:04:46;;;;;;;17.03;8.57;;;;;;;3.23;100.00;100403.01;1849507;78;21022;-71
2022/12/23 05:07:13;;;;;;;20.17;9.67;;;;;;;3.27;100.00;100415.66;1849312;77;21027;-72
2022/12/23 05:09:40;;;;;;;25.23;11.77;;;;;;;3.25;100.00;100404.23;1849510;78;21035;-71
2022/12/23 05:12:08;;;;;;;19.43;9.60;;;;;;;3.28;100.00;100404.02;1849075;78;20963;-72
2022/12/23 05:14:35;;;;;;;21.33;11.23;;;;;;;3.29;100.00;100407.88;1848947;77;21022;-72
2022/12/23 05:17:04;;;;;;;22.77;10.70;;;;;;;3.31;100.00;100407.77;1849274;77;21006;-73
2022/12/23 05:19:31;;;;;;;20.63;9.63;;;;;;;3.33;100.00;100412.05;1848944;78;20979;-72
2022/12/23 05:21:58;;;;;;;19.73;8.97;;;;;;;3.36;100.00;100410.95;1849656;77;21002;-72
2022/12/23 05:24:25;;;;;;;19.57;8.87;;;;;;;3.39;100.00;100405.38;1848375;77;20999;-71
2022/12/23 05:26:52;;;;;;;19.87;9.60;;;;;;;3.42;100.00;100412.69;1849390;78;20975;-73
2022/12/23 05:29:19;;;;;;;20.43;10.17;;;;;;;3.44;100.00;100409.05;1848890;78;21011;-72
2022/12/23 05:31:46;;;;;;;23.40;12.67;;;;;;;3.46;100.00;100412.46;1849349;78;21559;-70
2022/12/23 05:34:13;;;;;;;26.23;14.70;;;;;;;3.46;100.00;100411.13;1824326;78;20994;-71
2022/12/23 05:36:40;;;;;;;21.80;11.77;;;;;;;3.44;100.00;100409.90;1820957;79;21440;-71
2022/12/23 05:39:09;;;;;;;21.00;10.83;;;;;;;3.45;100.00;100414.26;1816323;79;21007;-72
2022/12/23 05:41:38;;;;;;;20.73;10.23;;;;;;;3.50;100.00;100418.78;1816214;79;20994;-72
2022/12/23 05:44:06;;;;;;;21.37;10.27;;;;;;;3.50;100.00;100412.09;1816226;77;21012;-71
2022/12/23 05:46:33;;;;;;;21.20;9.53;;;;;;;3.50;100.00;100417.94;1815782;79;21480;-71
2022/12/23 05:49:01;;;;;;;26.90;12.30;;;;;;;3.51;100.00;100417.82;1815726;79;21472;-72
2022/12/23 05:51:29;;;;;;;25.53;11.97;;;;;;;3.51;100.00;100415.15;1815770;79;21057;-71
2022/12/23 05:53:55;;;;;;;25.87;11.73;;;;;;;3.53;100.00;100420.38;1815395;78;20999;-72
2022/12/23 05:56:22;;;;;;;29.77;11.37;;;;;;;3.53;100.00;100418.55;1815683;79;20998;-71
2022/12/23 05:58:49;;;;;;;23.90;10.63;;;;;;;3.52;100.00;100422.18;1815585;79;21015;-73
2022/12/23 06:01:16;;;;;;;23.13;10.77;;;;;;;3.52;100.00;100416.83;1815695;79;21007;-71
2022/12/23 06:03:43;;;;;;;22.37;10.67;;;;;;;3.52;100.00;100420.00;1815579;79;21061;-72
2022/12/23 06:06:10;;;;;;;21.50;10.87;;;;;;;3.52;100.00;100419.50;1815661;79;20982;-71
2022/12/23 06:08:37;;;;;;;30.53;13.03;;;;;;;3.53;100.00;100414.55;1815338;79;21018;-72
2022/12/23 06:11:05;;;;;;;38.03;16.80;;;;;;;3.54;100.00;100422.95;1815644;79;21473;-72
2022/12/23 06:13:32;;;;;;;38.83;16.87;;;;;;;3.55;100.00;100422.45;1815436;79;21019;-72
2022/12/23 06:15:59;;;;;;;32.93;15.43;;;;;;;3.57;100.00;100425.86;1815503;77;21574;-71
2022/12/23 06:18:27;;;;;;;27.73;13.63;;;;;;;3.58;100.00;100427.08;1815900;78;21012;-71
2022/12/23 06:20:54;;;;;;;28.90;13.63;;;;;;;3.59;100.00;100435.95;1815821;79;21052;-72
2022/12/23 06:23:23;;;;;;;24.83;12.13;;;;;;;3.60;100.00;100429.64;1818642;79;21023;-72
2022/12/23 06:25:49;;;;;;;24.13;12.20;;;;;;;3.60;100.00;100425.14;1827816;77;20966;-72
2022/12/23 06:28:17;;;;;;;26.57;12.90;;;;;;;3.62;100.00;100425.02;1760620;79;21039;-72
2022/12/23 06:30:46;;;;;;;24.73;12.77;;;;;;;3.65;100.00;100428.81;1827031;78;20984;-72
2022/12/23 06:33:13;;;;;;;25.57;13.33;;;;;;;3.69;100.00;100424.92;1836242;77;21078;-72
2022/12/23 06:35:42;;;;;;;25.70;12.67;;;;;;;3.72;100.00;100424.70;1826036;77;20998;-72
2022/12/23 06:38:09;;;;;;;23.93;12.70;;;;;;;3.77;100.00;100423.86;1826924;78;20952;-74
2022/12/23 06:40:36;;;;;;;24.60;12.47;;;;;;;3.82;100.00;100428.84;1827209;77;21019;-71
2022/12/23 06:43:03;;;;;;;24.07;12.93;;;;;;;3.87;100.00;100422.65;1825302;77;21067;-69
2022/12/23 06:45:30;;;;;;;24.07;11.67;;;;;;;3.90;100.00;100422.92;1826416;78;21023;-69
2022/12/23 06:47:57;;;;;;;22.80;11.57;;;;;;;3.93;100.00;100414.62;1821193;78;20986;-74
2022/12/23 06:50:24;;;;;;;26.63;15.00;;;;;;;3.99;100.00;100409.66;1819308;78;21537;-72
2022/12/23 06:52:51;;;;;;;26.03;14.50;;;;;;;4.04;100.00;100418.67;1819224;79;21002;-73
2022/12/23 06:55:18;;;;;;;28.70;16.83;;;;;;;4.07;100.00;100410.88;1823200;77;21354;-73
2022/12/23 06:57:45;;;;;;;26.43;15.47;;;;;;;4.10;100.00;100414.66;1814443;77;20986;-71
2022/12/23 07:00:14;;;;;;;28.60;14.37;;;;;;;4.11;100.00;100405.18;1820712;78;20987;-71
2022/12/23 07:02:41;;;;;;;29.03;16.67;;;;;;;4.14;100.00;100412.98;1842148;78;20985;-72
2022/12/23 07:05:09;;;;;;;25.67;14.67;;;;;;;4.16;100.00;100417.72;1843396;78;21020;-72
2022/12/23 07:07:36;;;;;;;28.43;14.20;;;;;;;4.20;100.00;100407.63;1843388;78;21040;-72
2022/12/23 07:10:06;;;;;;;30.63;14.60;;;;;;;4.24;100.00;100406.89;1850711;77;21033;-72
2022/12/23 07:12:34;;;;;;;26.90;14.53;;;;;;;4.27;100.00;100411.52;1851714;77;21061;-73
2022/12/23 07:15:01;;;;;;;27.33;14.93;;;;;;;4.28;100.00;100406.51;1816254;78;21460;-70
2022/12/23 07:17:31;;;;;;;26.90;14.37;;;;;;;4.31;100.00;100413.46;1818584;79;21008;-73
2022/12/23 07:19:58;;;;;;;29.93;14.30;;;;;;;4.32;100.00;100413.81;1831422;77;20984;-72
2022/12/23 07:22:34;;;;;;;32.03;16.43;;;;;;;4.28;100.00;100403.83;1824597;77;21016;-73
2022/12/23 07:25:01;;;;;;;29.13;15.83;;;;;;;4.28;100.00;100413.20;1798667;77;21475;-72
2022/12/23 07:27:28;;;;;;;29.67;15.23;;;;;;;4.28;100.00;100411.86;1793932;80;21032;-72
2022/12/23 07:29:55;;;;;;;27.43;15.73;;;;;;;4.29;100.00;100415.41;1785154;80;21091;-73
2022/12/23 07:32:22;;;;;;;29.63;15.67;;;;;;;4.28;100.00;100409.19;1786418;80;20996;-72
2022/12/23 07:34:49;;;;;;;29.73;15.57;;;;;;;4.29;100.00;100418.09;1786133;80;20981;-72
2022/12/23 07:37:18;;;;;;;25.80;13.93;;;;;;;4.27;100.00;100418.20;1775060;80;21001;-74
2022/12/23 07:39:45;;;;;;;26.97;14.63;;;;;;;4.28;100.00;100417.71;1792426;80;21025;-70
2022/12/23 07:42:13;;;;;;;28.70;15.03;;;;;;;4.31;100.00;100417.48;1790947;80;21043;-74
2022/12/23 07:44:40;;;;;;;26.63;14.30;;;;;;;4.33;100.00;100412.35;1793114;80;21001;-72
2022/12/23 07:47:08;;;;;;;27.67;14.57;;;;;;;4.37;100.00;100418.31;1786803;80;21489;-71
2022/12/23 07:49:34;;;;;;;26.00;13.57;;;;;;;4.36;100.00;100418.81;1783018;80;21024;-72
2022/12/23 07:52:02;;;;;;;28.37;14.17;;;;;;;4.39;100.00;100415.02;1786392;80;21011;-71
2022/12/23 07:54:30;;;;;;;28.30;13.43;;;;;;;4.41;100.00;100419.80;1787194;80;21505;-72
2022/12/23 07:56:57;;;;;;;48.43;28.87;;;;;;;4.46;100.00;100414.93;1786426;80;21036;-72
2022/12/23 07:59:26;;;;;;;36.73;19.27;;;;;;;4.52;100.00;100409.06;1791128;80;21484;-73
2022/12/23 08:01:53;;;;;;;43.53;25.00;;;;;;;4.58;100.00;100402.86;1791886;80;21057;-72
2022/12/23 08:04:21;;;;;;;31.87;17.37;;;;;;;4.64;100.00;100406.36;1779608;79;21031;-72
2022/12/23 08:06:48;;;;;;;71.23;37.93;;;;;;;4.69;100.00;100405.04;1775871;80;21060;-71
2022/12/23 08:09:15;;;;;;;122.03;63.03;;;;;;;4.71;100.00;100408.91;1796191;80;20950;-72
2022/12/23 08:11:41;;;;;;;52.77;30.50;;;;;;;4.71;100.00;100405.77;1788734;79;21048;-71
2022/12/23 08:14:12;;;;;;;59.87;33.13;;;;;;;4.73;100.00;100409.66;1790648;80;21052;-72
2022/12/23 08:16:43;;;;;;;39.87;23.53;;;;;;;4.72;100.00;100404.77;1791765;80;20961;-71
2022/12/23 08:19:20;;;;;;;71.73;35.37;;;;;;;4.74;100.00;100399.30;1786401;80;21053;-70
2022/12/23 08:26:04;;;;;;;124.43;59.07;;;;;;;4.77;100.00;100391.02;1780355;79;21079;-71
2022/12/23 08:28:32;;;;;;;92.40;48.63;;;;;;;4.79;100.00;100385.53;1794041;79;20997;-71
2022/12/23 08:31:15;;;;;;;64.40;32.03;;;;;;;4.78;100.00;100384.69;1825967;78;21042;-72
2022/12/23 08:33:46;;;;;;;43.83;24.40;;;;;;;4.78;100.00;100387.84;1824873;79;21031;-71
2022/12/23 08:36:16;;;;;;;36.43;19.50;;;;;;;4.77;100.00;100378.95;1824589;78;21020;-71
2022/12/23 08:38:44;;;;;;;35.83;16.83;;;;;;;4.80;100.00;100385.87;1825764;78;21008;-71
2022/12/23 08:41:13;;;;;;;30.23;14.87;;;;;;;4.81;100.00;100377.72;1826162;78;20988;-71
2022/12/23 08:43:40;;;;;;;31.07;13.80;;;;;;;4.84;100.00;100381.50;1844341;77;21041;-71
2022/12/23 08:46:11;;;;;;;30.50;14.53;;;;;;;4.84;100.00;100375.30;1858689;77;21467;-73
2022/12/23 08:48:38;;;;;;;32.67;14.80;;;;;;;4.84;100.00;100380.66;1846587;77;21513;-71
2022/12/23 08:51:11;;;;;;;34.10;15.10;;;;;;;4.86;100.00;100374.67;1826438;78;21505;-72
2022/12/23 08:53:38;;;;;;;31.80;14.65;;;;;;;4.84;100.00;100368.59;1823251;77;21456;-73
2022/12/23 08:56:08;;;;;;;36.30;16.70;;;;;;;4.87;100.00;100370.53;1848583;77;20985;-72
2022/12/23 08:58:38;;;;;;;41.70;17.93;;;;;;;4.91;100.00;100368.45;1859444;77;21046;-71
2022/12/23 09:01:06;;;;;;;33.17;15.07;;;;;;;4.95;100.00;100366.71;1859907;77;21010;-72
2022/12/23 09:03:33;;;;;;;40.47;17.37;;;;;;;4.99;100.00;100368.65;1858798;77;21022;-72
2022/12/23 09:06:11;;;;;;;39.63;18.13;;;;;;;4.98;100.00;100370.14;1843116;77;20978;-72
2022/12/23 09:08:39;;;;;;;44.63;19.57;;;;;;;4.95;100.00;100372.07;1846231;77;20998;-72
2022/12/23 09:14:00;;;;;;;35.77;14.90;;;;;;;4.97;100.00;100369.77;1835245;77;20951;-73
2022/12/23 09:16:28;;;;;;;38.87;16.97;;;;;;;4.95;100.00;100365.87;1825707;79;21048;-71
2022/12/23 09:18:55;;;;;;;33.57;15.93;;;;;;;4.97;100.00;100364.41;1825593;78;21072;-71
2022/12/23 09:21:28;;;;;;;31.80;15.93;;;;;;;4.98;100.00;100369.64;1825520;79;21007;-71
2022/12/23 09:23:56;;;;;;;25.87;13.57;;;;;;;4.97;100.00;100360.39;1825217;79;21014;-71
2022/12/23 09:26:26;;;;;;;26.97;12.27;;;;;;;4.95;100.00;100361.85;1825491;79;21038;-71
2022/12/23 09:28:57;;;;;;;28.13;13.70;;;;;;;4.94;100.00;100360.16;1825508;79;21515;-72
2022/12/23 09:31:26;;;;;;;26.80;12.80;;;;;;;4.94;100.00;100362.34;1825297;79;21077;-72
2022/12/23 09:33:53;;;;;;;25.50;11.70;;;;;;;4.94;100.00;100365.03;1825113;79;21060;-72
2022/12/23 09:36:23;;;;;;;23.20;11.70;;;;;;;4.93;100.00;100359.30;1825808;79;20994;-75
2022/12/23 09:38:56;;;;;;;23.40;11.03;;;;;;;4.92;100.00;100359.41;1826218;79;21018;-75
2022/12/23 09:42:08;;;;;;;24.77;11.50;;;;;;;4.89;100.00;100359.70;1826389;79;21049;-75
2022/12/23 09:44:49;;;;;;;27.77;12.50;;;;;;;4.89;100.00;100351.16;1824860;79;21057;-71
2022/12/23 09:47:20;;;;;;;27.30;12.97;;;;;;;4.86;100.00;100346.54;1789227;78;20986;-70
2022/12/23 09:49:54;;;;;;;28.03;15.10;;;;;;;4.87;100.00;100343.73;1754640;80;21081;-70
2022/12/23 09:52:45;;;;;;;52.90;31.23;;;;;;;4.91;100.00;100344.33;1797420;77;20993;-71
2022/12/23 09:55:15;;;;;;;45.73;26.77;;;;;;;4.94;100.00;100342.75;1780875;80;21063;-71
2022/12/23 09:58:04;;;;;;;46.93;25.10;;;;;;;4.97;100.00;100339.79;1780740;80;21020;-74
2022/12/23 10:00:41;;;;;;;47.57;30.97;;;;;;;4.99;100.00;100339.66;1804832;77;20978;-73
2022/12/23 10:03:29;;;;;;;35.77;18.70;;;;;;;5.00;100.00;100333.34;1824639;77;20960;-72
2022/12/23 10:06:43;;;;;;;34.73;17.63;;;;;;;4.97;100.00;100337.11;1789427;77;21017;-73
2022/12/23 10:09:14;;;;;;;31.13;18.37;;;;;;;4.97;100.00;100334.43;1741766;82;21555;-73
2022/12/23 10:11:45;;;;;;;30.13;14.50;;;;;;;4.99;100.00;100339.16;1765607;80;21097;-74
2022/12/23 10:14:29;;;;;;;26.90;14.13;;;;;;;5.04;100.00;100335.62;1766618;81;20983;-74
2022/12/23 10:17:04;;;;;;;27.83;12.93;;;;;;;5.10;100.00;100342.32;1766471;81;21504;-76
2022/12/23 10:19:40;;;;;;;28.13;13.27;;;;;;;5.13;100.00;100333.53;1809945;77;21074;-69
2022/12/23 10:22:21;;;;;;;32.67;14.47;;;;;;;5.14;100.00;100336.55;1780549;77;21014;-72
2022/12/23 10:24:53;;;;;;;30.80;13.83;;;;;;;5.16;100.00;100334.25;1811926;78;21031;-75
2022/12/23 10:27:33;;;;;;;36.90;14.73;;;;;;;5.15;100.00;100334.72;1803000;79;21007;-70
2022/12/23 10:30:19;;;;;;;30.57;12.63;;;;;;;5.18;100.00;100333.62;1787733;80;21488;-70
2022/12/23 10:33:10;;;;;;;28.23;12.37;;;;;;;5.19;100.00;100337.98;1792032;79;21000;-70
2022/12/23 10:36:23;;;;;;;31.63;13.33;;;;;;;5.19;100.00;100329.95;1790813;79;21004;-70
2022/12/23 10:39:20;;;;;;;27.07;12.97;;;;;;;5.20;100.00;100332.50;1804319;79;21614;-69
2022/12/23 10:42:17;;;;;;;32.50;14.30;;;;;;;5.23;100.00;100324.70;1780542;78;20998;-76
2022/12/23 10:45:10;;;;;;;28.93;12.97;;;;;;;5.22;100.00;100324.33;1794828;79;21048;-73
2022/12/23 10:48:35;;;;;;;32.03;14.30;;;;;;;5.23;100.00;100324.70;1800362;79;20964;-74
2022/12/23 10:51:24;;;;;;;30.10;13.27;;;;;;;5.22;100.00;100324.33;1799789;79;21490;-74
2022/12/23 10:54:27;;;;;;;34.63;14.00;;;;;;;5.17;100.00;100325.20;1792622;80;21012;-69
2022/12/23 10:56:54;;;;;;;32.10;13.17;;;;;;;5.17;100.00;100330.10;1791001;80;21747;-73
2022/12/23 10:59:35;;;;;;;29.83;13.97;;;;;;;5.20;100.00;100330.32;1791454;79;21038;-74
2022/12/23 11:02:24;;;;;;;26.57;12.53;;;;;;;5.18;100.00;100327.77;1790284;80;21488;-72
2022/12/23 11:04:54;;;;;;;27.90;14.30;;;;;;;5.12;100.00;100329.13;1790715;80;21011;-73
2022/12/23 11:12:00;;;;;;;34.53;15.17;;;;;;;5.14;100.00;100323.65;1790446;80;21149;-69
2022/12/23 11:17:32;;;;;;;26.13;13.03;;;;;;;5.17;100.00;100326.55;1809152;79;20979;-71
2022/12/23 11:20:17;;;;;;;26.87;13.03;;;;;;;5.15;100.00;100329.35;1809165;79;21010;-73
2022/12/23 11:23:01;;;;;;;24.53;12.43;;;;;;;5.15;100.00;100337.39;1809409;79;20983;-76
2022/12/23 11:25:41;;;;;;;27.67;12.07;;;;;;;5.14;100.00;100327.67;1803856;79;20999;-72
2022/12/23 11:28:20;;;;;;;31.73;14.50;;;;;;;5.18;100.00;100328.27;1798050;80;21066;-72
2022/12/23 11:31:10;;;;;;;32.07;14.63;;;;;;;5.19;100.00;100325.45;1798156;80;21062;-73
2022/12/23 11:33:57;;;;;;;29.37;14.53;;;;;;;5.18;100.00;100329.10;1798239;79;21062;-73
2022/12/23 11:36:28;;;;;;;31.87;16.33;;;;;;;5.18;100.00;100320.22;1798027;79;21074;-73
2022/12/23 11:39:18;;;;;;;33.80;17.53;;;;;;;5.17;100.00;100318.50;1797873;79;21031;-72
2022/12/23 11:41:49;;;;;;;48.77;27.63;;;;;;;5.14;100.00;100316.45;1798036;79;20992;-73
2022/12/23 11:44:45;;;;;;;55.90;29.60;;;;;;;5.16;100.00;100313.64;1798161;80;21007;-72
2022/12/23 11:47:38;;;;;;;33.77;17.73;;;;;;;5.19;100.00;100321.44;1812988;79;20978;-70
2022/12/23 11:50:37;;;;;;;42.93;21.03;;;;;;;5.19;100.00;100313.39;1815616;79;20991;-70
2022/12/23 11:53:23;;;;;;;29.33;16.27;;;;;;;5.18;100.00;100314.36;1694536;85;21001;-70
2022/12/23 11:56:14;;;;;;;29.27;13.57;;;;;;;5.20;100.00;100319.59;1837899;77;20964;-69
2022/12/23 11:58:59;;;;;;;45.57;24.27;;;;;;;5.16;100.00;100320.34;1854726;77;20982;-69
2022/12/23 12:01:26;;;;;;;25.80;13.07;;;;;;;5.10;100.00;100317.70;1854543;77;20955;-69
2022/12/23 12:03:59;;;;;;;33.67;13.97;;;;;;;5.09;100.00;100320.50;1854759;77;21054;-69
2022/12/23 12:06:27;;;;;;;29.67;13.77;;;;;;;5.08;100.00;100322.81;1854790;77;21015;-72
2022/12/23 12:09:03;;;;;;;27.30;12.93;;;;;;;5.07;100.00;100321.13;1855083;77;21474;-74
2022/12/23 12:11:41;;;;;;;27.97;13.10;;;;;;;5.06;100.00;100324.27;1797224;79;20968;-74
2022/12/23 12:14:22;;;;;;;24.97;11.80;;;;;;;5.07;100.00;100329.17;1817411;77;21086;-72
2022/12/23 12:17:01;;;;;;;25.03;11.43;;;;;;;5.08;100.00;100335.74;1789719;79;21091;-70
2022/12/23 12:19:44;;;;;;;23.67;10.87;;;;;;;5.10;100.00;100328.92;1820639;79;21020;-69
2022/12/23 12:22:19;;;;;;;31.33;14.27;;;;;;;5.13;100.00;100332.19;1820594;79;21016;-70
2022/12/23 12:24:53;;;;;;;28.10;12.87;;;;;;;5.16;100.00;100327.55;1819072;79;21043;-68
2022/12/23 12:27:25;;;;;;;25.53;12.47;;;;;;;5.18;100.00;100331.78;1803754;79;21487;-68